sensor_id;sensor_type;location;lat;lon;timestamp;pressure;altitude;pressure_sealevel;temperature;humidity
13974;BME280;7060;43.770;4.008;2023-04-23T00:01:00;100784.22;;;14.03;76.02
13974;BME280;7060;43.770;4.008;2023-04-23T00:03:31;100779.00;;;14.02;76.01
13974;BME280;7060;43.770;4.008;2023-04-23T00:06:04;100774.78;;;14.07;75.44
13974;BME280;7060;43.770;4.008;2023-04-23T00:08:34;100777.63;;;14.06;75.58
13974;BME280;7060;43.770;4.008;2023-04-23T00:11:03;100771.78;;;14.02;75.98
13974;BME280;7060;43.770;4.008;2023-04-23T00:13:32;100769.78;;;14.04;75.41
13974;BME280;7060;43.770;4.008;2023-04-23T00:16:03;100726.72;;;13.80;75.59
13974;BME280;7060;43.770;4.008;2023-04-23T00:18:32;100753.47;;;13.98;75.66
13974;BME280;7060;43.770;4.008;2023-04-23T00:21:00;100757.50;;;13.94;76.20
13974;BME280;7060;43.770;4.008;2023-04-23T00:23:28;100746.91;;;13.92;75.97
13974;BME280;7060;43.770;4.008;2023-04-23T00:25:57;100751.09;;;13.95;75.83
13974;BME280;7060;43.770;4.008;2023-04-23T00:28:25;100742.88;;;13.88;76.02
13974;BME280;7060;43.770;4.008;2023-04-23T00:30:53;100747.72;;;13.84;75.96
13974;BME280;7060;43.770;4.008;2023-04-23T00:33:24;100747.91;;;13.83;76.41
13974;BME280;7060;43.770;4.008;2023-04-23T00:35:53;100744.19;;;13.84;76.23
13974;BME280;7060;43.770;4.008;2023-04-23T00:38:21;100751.25;;;13.85;76.02
13974;BME280;7060;43.770;4.008;2023-04-23T00:40:52;100748.22;;;13.80;75.68
13974;BME280;7060;43.770;4.008;2023-04-23T00:43:20;100752.44;;;13.74;75.91
13974;BME280;7060;43.770;4.008;2023-04-23T00:45:50;100744.72;;;13.71;76.14
13974;BME280;7060;43.770;4.008;2023-04-23T00:48:20;100749.25;;;13.71;75.77
13974;BME280;7060;43.770;4.008;2023-04-23T00:50:57;100750.41;;;13.68;75.75
13974;BME280;7060;43.770;4.008;2023-04-23T00:53:26;100750.91;;;13.64;75.91
13974;BME280;7060;43.770;4.008;2023-04-23T00:55:54;100749.91;;;13.65;75.93
13974;BME280;7060;43.770;4.008;2023-04-23T00:58:23;100747.88;;;13.67;75.66
13974;BME280;7060;43.770;4.008;2023-04-23T01:00:52;100745.53;;;13.64;75.31
13974;BME280;7060;43.770;4.008;2023-04-23T01:03:22;100738.44;;;13.54;75.80
13974;BME280;7060;43.770;4.008;2023-04-23T01:05:53;100739.13;;;13.48;75.78
13974;BME280;7060;43.770;4.008;2023-04-23T01:08:22;100742.66;;;13.49;75.72
13974;BME280;7060;43.770;4.008;2023-04-23T01:10:52;100739.13;;;13.48;75.71
13974;BME280;7060;43.770;4.008;2023-04-23T01:13:20;100743.81;;;13.46;75.19
13974;BME280;7060;43.770;4.008;2023-04-23T01:15:52;100739.06;;;13.40;75.57
13974;BME280;7060;43.770;4.008;2023-04-23T01:18:21;100741.06;;;13.38;75.98
13974;BME280;7060;43.770;4.008;2023-04-23T01:20:50;100738.56;;;13.37;76.09
13974;BME280;7060;43.770;4.008;2023-04-23T01:23:21;100733.66;;;13.32;75.44
13974;BME280;7060;43.770;4.008;2023-04-23T01:25:49;100739.03;;;13.32;75.37
13974;BME280;7060;43.770;4.008;2023-04-23T01:28:18;100739.53;;;13.28;75.58
13974;BME280;7060;43.770;4.008;2023-04-23T01:30:47;100737.16;;;13.24;75.57
13974;BME280;7060;43.770;4.008;2023-04-23T01:33:16;100737.69;;;13.20;75.70
13974;BME280;7060;43.770;4.008;2023-04-23T01:35:46;100733.78;;;13.14;75.39
13974;BME280;7060;43.770;4.008;2023-04-23T01:38:16;100739.31;;;13.13;75.53
13974;BME280;7060;43.770;4.008;2023-04-23T01:40:46;100719.13;;;13.01;75.69
13974;BME280;7060;43.770;4.008;2023-04-23T01:43:15;100747.69;;;13.10;75.53
13974;BME280;7060;43.770;4.008;2023-04-23T01:45:44;100732.59;;;13.09;74.85
13974;BME280;7060;43.770;4.008;2023-04-23T01:48:14;100740.28;;;13.04;75.05
13974;BME280;7060;43.770;4.008;2023-04-23T01:50:42;100736.22;;;13.00;75.06
13974;BME280;7060;43.770;4.008;2023-04-23T01:53:11;100741.91;;;12.97;75.20
13974;BME280;7060;43.770;4.008;2023-04-23T01:55:40;100733.22;;;12.95;74.95
13974;BME280;7060;43.770;4.008;2023-04-23T01:58:11;100738.22;;;12.89;74.69
13974;BME280;7060;43.770;4.008;2023-04-23T02:00:40;100729.97;;;12.83;75.08
13974;BME280;7060;43.770;4.008;2023-04-23T02:03:09;100738.00;;;12.83;74.41
13974;BME280;7060;43.770;4.008;2023-04-23T02:05:40;100735.44;;;12.73;74.51
13974;BME280;7060;43.770;4.008;2023-04-23T02:08:09;100738.97;;;12.74;74.85
13974;BME280;7060;43.770;4.008;2023-04-23T02:10:37;100741.50;;;12.75;74.50
13974;BME280;7060;43.770;4.008;2023-04-23T02:13:06;100737.44;;;12.71;74.47
13974;BME280;7060;43.770;4.008;2023-04-23T02:15:36;100729.22;;;12.73;75.01
13974;BME280;7060;43.770;4.008;2023-04-23T02:18:05;100732.22;;;12.70;74.83
13974;BME280;7060;43.770;4.008;2023-04-23T02:20:33;100727.53;;;12.64;74.29
13974;BME280;7060;43.770;4.008;2023-04-23T02:23:04;100723.16;;;12.63;74.05
13974;BME280;7060;43.770;4.008;2023-04-23T02:25:33;100721.47;;;12.62;74.12
13974;BME280;7060;43.770;4.008;2023-04-23T02:28:04;100727.16;;;12.59;74.39
13974;BME280;7060;43.770;4.008;2023-04-23T02:30:33;100726.63;;;12.55;73.92
13974;BME280;7060;43.770;4.008;2023-04-23T02:33:03;100736.00;;;12.51;74.09
13974;BME280;7060;43.770;4.008;2023-04-23T02:35:32;100734.47;;;12.48;74.55
13974;BME280;7060;43.770;4.008;2023-04-23T02:38:00;100733.31;;;12.51;73.97
13974;BME280;7060;43.770;4.008;2023-04-23T02:40:29;100737.81;;;12.50;74.09
13974;BME280;7060;43.770;4.008;2023-04-23T02:42:57;100737.81;;;12.50;74.28
13974;BME280;7060;43.770;4.008;2023-04-23T02:45:25;100735.16;;;12.50;74.04
13974;BME280;7060;43.770;4.008;2023-04-23T02:47:54;100737.59;;;12.44;74.41
13974;BME280;7060;43.770;4.008;2023-04-23T02:50:24;100734.94;;;12.44;73.94
13974;BME280;7060;43.770;4.008;2023-04-23T02:52:52;100732.91;;;12.38;73.96
13974;BME280;7060;43.770;4.008;2023-04-23T02:55:21;100728.53;;;12.37;74.27
13974;BME280;7060;43.770;4.008;2023-04-23T02:57:51;100723.50;;;12.34;74.24
13974;BME280;7060;43.770;4.008;2023-04-23T03:00:19;100731.16;;;12.29;74.47
13974;BME280;7060;43.770;4.008;2023-04-23T03:02:48;100733.53;;;12.32;74.97
13974;BME280;7060;43.770;4.008;2023-04-23T03:05:17;100719.97;;;12.33;74.36
13974;BME280;7060;43.770;4.008;2023-04-23T03:07:47;100718.28;;;12.32;74.09
13974;BME280;7060;43.770;4.008;2023-04-23T03:10:15;100718.22;;;12.24;73.81
13974;BME280;7060;43.770;4.008;2023-04-23T03:12:44;100718.53;;;12.21;74.11
13974;BME280;7060;43.770;4.008;2023-04-23T03:15:14;100716.31;;;12.16;73.54
13974;BME280;7060;43.770;4.008;2023-04-23T03:17:44;100713.25;;;12.11;73.67
13974;BME280;7060;43.770;4.008;2023-04-23T03:20:13;100707.13;;;12.01;73.75
13974;BME280;7060;43.770;4.008;2023-04-23T03:22:41;100703.91;;;11.98;73.56
13974;BME280;7060;43.770;4.008;2023-04-23T03:25:11;100701.84;;;11.92;73.29
13974;BME280;7060;43.770;4.008;2023-04-23T03:27:40;100709.00;;;11.83;73.56
13974;BME280;7060;43.770;4.008;2023-04-23T03:30:10;100693.16;;;11.72;73.36
13974;BME280;7060;43.770;4.008;2023-04-23T03:32:39;100708.25;;;11.73;73.02
13974;BME280;7060;43.770;4.008;2023-04-23T03:35:08;100710.84;;;11.65;73.12
13974;BME280;7060;43.770;4.008;2023-04-23T03:37:40;100713.97;;;11.60;73.10
13974;BME280;7060;43.770;4.008;2023-04-23T03:40:11;100720.09;;;11.52;72.73
13974;BME280;7060;43.770;4.008;2023-04-23T03:42:41;100714.50;;;11.46;72.86
13974;BME280;7060;43.770;4.008;2023-04-23T03:45:14;100730.19;;;11.41;73.02
13974;BME280;7060;43.770;4.008;2023-04-23T03:47:43;100725.72;;;11.32;73.07
13974;BME280;7060;43.770;4.008;2023-04-23T03:50:12;100735.59;;;11.31;72.77
13974;BME280;7060;43.770;4.008;2023-04-23T03:52:43;100722.81;;;11.25;72.53
13974;BME280;7060;43.770;4.008;2023-04-23T03:55:21;100723.88;;;11.14;72.67
13974;BME280;7060;43.770;4.008;2023-04-23T03:57:50;100725.28;;;11.09;72.79
13974;BME280;7060;43.770;4.008;2023-04-23T04:00:21;100734.47;;;11.06;72.55
13974;BME280;7060;43.770;4.008;2023-04-23T04:02:50;100729.59;;;11.02;72.26
13974;BME280;7060;43.770;4.008;2023-04-23T04:05:20;100731.16;;;10.95;72.19
13974;BME280;7060;43.770;4.008;2023-04-23T04:07:52;100732.03;;;10.85;72.52
13974;BME280;7060;43.770;4.008;2023-04-23T04:10:22;100725.59;;;10.78;72.45
13974;BME280;7060;43.770;4.008;2023-04-23T04:12:50;100718.16;;;10.72;72.27
13974;BME280;7060;43.770;4.008;2023-04-23T04:15:19;100721.25;;;10.68;72.25
13974;BME280;7060;43.770;4.008;2023-04-23T04:17:47;100711.97;;;10.62;72.32
13974;BME280;7060;43.770;4.008;2023-04-23T04:20:16;100722.38;;;10.65;71.97
13974;BME280;7060;43.770;4.008;2023-04-23T04:22:44;100720.44;;;10.58;71.88
13974;BME280;7060;43.770;4.008;2023-04-23T04:25:13;100724.16;;;10.47;71.92
13974;BME280;7060;43.770;4.008;2023-04-23T04:27:43;100718.81;;;10.37;72.11
13974;BME280;7060;43.770;4.008;2023-04-23T04:30:13;100709.97;;;10.37;72.14
13974;BME280;7060;43.770;4.008;2023-04-23T04:32:41;100722.47;;;10.36;71.88
13974;BME280;7060;43.770;4.008;2023-04-23T04:35:11;100717.69;;;10.30;71.79
13974;BME280;7060;43.770;4.008;2023-04-23T04:37:40;100715.47;;;10.26;71.76
13974;BME280;7060;43.770;4.008;2023-04-23T04:40:11;100699.75;;;10.13;71.61
13974;BME280;7060;43.770;4.008;2023-04-23T04:42:40;100711.56;;;10.10;71.70
13974;BME280;7060;43.770;4.008;2023-04-23T04:45:10;100709.19;;;10.07;71.97
13974;BME280;7060;43.770;4.008;2023-04-23T04:47:39;100710.03;;;10.08;71.70
13974;BME280;7060;43.770;4.008;2023-04-23T04:50:08;100710.16;;;10.06;71.60
13974;BME280;7060;43.770;4.008;2023-04-23T04:52:37;100705.94;;;10.04;71.36
13974;BME280;7060;43.770;4.008;2023-04-23T04:55:06;100707.50;;;9.97;71.36
13974;BME280;7060;43.770;4.008;2023-04-23T04:57:34;100709.06;;;9.90;71.29
13974;BME280;7060;43.770;4.008;2023-04-23T05:00:20;100706.53;;;9.78;71.45
13974;BME280;7060;43.770;4.008;2023-04-23T05:02:49;100713.69;;;9.78;71.24
13974;BME280;7060;43.770;4.008;2023-04-23T05:05:18;100714.97;;;9.74;71.40
13974;BME280;7060;43.770;4.008;2023-04-23T05:07:47;100733.50;;;9.75;71.37
13974;BME280;7060;43.770;4.008;2023-04-23T05:10:16;100737.31;;;9.73;71.46
13974;BME280;7060;43.770;4.008;2023-04-23T05:12:44;100738.88;;;9.66;71.32
13974;BME280;7060;43.770;4.008;2023-04-23T05:15:13;100742.53;;;9.65;71.57
13974;BME280;7060;43.770;4.008;2023-04-23T05:17:43;100748.28;;;9.60;71.98
13974;BME280;7060;43.770;4.008;2023-04-23T05:20:12;100746.88;;;9.66;72.22
13974;BME280;7060;43.770;4.008;2023-04-23T05:22:41;100747.00;;;9.74;71.99
13974;BME280;7060;43.770;4.008;2023-04-23T05:25:10;100746.44;;;9.80;71.49
13974;BME280;7060;43.770;4.008;2023-04-23T05:27:40;100751.81;;;9.90;71.60
13974;BME280;7060;43.770;4.008;2023-04-23T05:30:09;100751.78;;;9.99;71.20
13974;BME280;7060;43.770;4.008;2023-04-23T05:32:39;100750.50;;;10.03;70.82
13974;BME280;7060;43.770;4.008;2023-04-23T05:35:09;100761.91;;;10.05;70.61
13974;BME280;7060;43.770;4.008;2023-04-23T05:37:37;100760.50;;;10.01;70.90
13974;BME280;7060;43.770;4.008;2023-04-23T05:40:07;100759.09;;;10.07;71.25
13974;BME280;7060;43.770;4.008;2023-04-23T05:42:35;100757.25;;;10.07;71.32
13974;BME280;7060;43.770;4.008;2023-04-23T05:45:05;100722.56;;;9.88;71.66
13974;BME280;7060;43.770;4.008;2023-04-23T05:47:35;100755.16;;;10.21;71.86
13974;BME280;7060;43.770;4.008;2023-04-23T05:50:05;100744.28;;;10.32;72.31
13974;BME280;7060;43.770;4.008;2023-04-23T05:52:35;100750.97;;;10.55;72.74
13974;BME280;7060;43.770;4.008;2023-04-23T05:55:04;100749.03;;;10.94;72.65
13974;BME280;7060;43.770;4.008;2023-04-23T05:57:35;100749.59;;;11.25;72.17
13974;BME280;7060;43.770;4.008;2023-04-23T06:00:05;100744.19;;;11.52;71.42
13974;BME280;7060;43.770;4.008;2023-04-23T06:02:40;100741.91;;;11.75;71.48
13974;BME280;7060;43.770;4.008;2023-04-23T06:05:09;100749.47;;;11.98;71.30
13974;BME280;7060;43.770;4.008;2023-04-23T06:07:39;100736.50;;;12.29;71.19
13974;BME280;7060;43.770;4.008;2023-04-23T06:10:08;100742.72;;;12.55;70.91
13974;BME280;7060;43.770;4.008;2023-04-23T06:12:37;100742.31;;;12.76;70.77
13974;BME280;7060;43.770;4.008;2023-04-23T06:15:08;100740.91;;;12.98;70.88
13974;BME280;7060;43.770;4.008;2023-04-23T06:17:37;100747.09;;;13.32;70.64
13974;BME280;7060;43.770;4.008;2023-04-23T06:20:07;100753.44;;;13.73;70.71
13974;BME280;7060;43.770;4.008;2023-04-23T06:22:39;100753.97;;;14.26;70.01
13974;BME280;7060;43.770;4.008;2023-04-23T06:25:08;100751.38;;;14.73;69.54
13974;BME280;7060;43.770;4.008;2023-04-23T06:27:37;100743.97;;;15.22;68.63
13974;BME280;7060;43.770;4.008;2023-04-23T06:30:12;100736.94;;;15.75;66.68
13974;BME280;7060;43.770;4.008;2023-04-23T06:32:41;100745.03;;;16.20;65.25
13974;BME280;7060;43.770;4.008;2023-04-23T06:35:09;100749.59;;;16.72;63.30
13974;BME280;7060;43.770;4.008;2023-04-23T06:37:39;100745.69;;;16.89;62.03
13974;BME280;7060;43.770;4.008;2023-04-23T06:40:08;100753.78;;;16.89;62.22
13974;BME280;7060;43.770;4.008;2023-04-23T06:42:37;100756.75;;;16.95;61.83
13974;BME280;7060;43.770;4.008;2023-04-23T06:45:17;100764.22;;;16.92;61.15
13974;BME280;7060;43.770;4.008;2023-04-23T06:47:45;100766.72;;;16.79;62.05
13974;BME280;7060;43.770;4.008;2023-04-23T06:50:15;100768.78;;;16.54;62.86
13974;BME280;7060;43.770;4.008;2023-04-23T06:52:45;100777.22;;;16.37;63.47
13974;BME280;7060;43.770;4.008;2023-04-23T06:55:14;100777.75;;;16.17;64.22
13974;BME280;7060;43.770;4.008;2023-04-23T06:57:43;100775.47;;;16.06;64.89
13974;BME280;7060;43.770;4.008;2023-04-23T07:00:12;100775.28;;;15.85;65.47
13974;BME280;7060;43.770;4.008;2023-04-23T07:02:42;100782.59;;;15.76;66.50
13974;BME280;7060;43.770;4.008;2023-04-23T07:05:10;100774.94;;;15.65;66.68
13974;BME280;7060;43.770;4.008;2023-04-23T07:07:39;100772.06;;;15.58;67.33
13974;BME280;7060;43.770;4.008;2023-04-23T07:10:11;100764.50;;;15.54;67.75
13974;BME280;7060;43.770;4.008;2023-04-23T07:12:43;100768.38;;;15.51;68.57
13974;BME280;7060;43.770;4.008;2023-04-23T07:15:12;100763.31;;;15.56;68.55
13974;BME280;7060;43.770;4.008;2023-04-23T07:17:41;100751.25;;;15.75;68.16
13974;BME280;7060;43.770;4.008;2023-04-23T07:20:09;100744.66;;;16.01;68.40
13974;BME280;7060;43.770;4.008;2023-04-23T07:22:38;100745.28;;;16.25;68.30
13974;BME280;7060;43.770;4.008;2023-04-23T07:25:07;100751.75;;;16.39;67.51
13974;BME280;7060;43.770;4.008;2023-04-23T07:27:37;100746.66;;;16.59;66.65
13974;BME280;7060;43.770;4.008;2023-04-23T07:30:07;100746.34;;;16.91;65.73
13974;BME280;7060;43.770;4.008;2023-04-23T07:32:35;100740.44;;;17.32;64.41
13974;BME280;7060;43.770;4.008;2023-04-23T07:35:05;100733.94;;;17.84;63.54
13974;BME280;7060;43.770;4.008;2023-04-23T07:37:35;100740.00;;;18.07;61.11
13974;BME280;7060;43.770;4.008;2023-04-23T07:40:05;100738.81;;;18.16;60.78
13974;BME280;7060;43.770;4.008;2023-04-23T07:42:35;100743.00;;;18.19;60.08
13974;BME280;7060;43.770;4.008;2023-04-23T07:45:06;100741.00;;;18.27;58.51
13974;BME280;7060;43.770;4.008;2023-04-23T07:47:34;100735.31;;;18.22;59.13
13974;BME280;7060;43.770;4.008;2023-04-23T07:50:03;100736.66;;;18.05;59.45
13974;BME280;7060;43.770;4.008;2023-04-23T07:52:32;100740.75;;;18.01;58.97
13974;BME280;7060;43.770;4.008;2023-04-23T07:55:00;100740.88;;;17.93;59.19
13974;BME280;7060;43.770;4.008;2023-04-23T07:57:29;100742.25;;;17.82;60.22
13974;BME280;7060;43.770;4.008;2023-04-23T07:59:57;100720.84;;;17.66;60.29
13974;BME280;7060;43.770;4.008;2023-04-23T08:02:28;100733.81;;;17.71;60.38
13974;BME280;7060;43.770;4.008;2023-04-23T08:04:57;100734.19;;;17.68;59.95
13974;BME280;7060;43.770;4.008;2023-04-23T08:07:26;100732.88;;;17.64;59.86
13974;BME280;7060;43.770;4.008;2023-04-23T08:09:55;100742.88;;;17.63;59.84
13974;BME280;7060;43.770;4.008;2023-04-23T08:12:28;100743.97;;;17.69;60.16
13974;BME280;7060;43.770;4.008;2023-04-23T08:14:57;100751.69;;;17.72;60.51
13974;BME280;7060;43.770;4.008;2023-04-23T08:17:34;100734.66;;;17.71;59.50
13974;BME280;7060;43.770;4.008;2023-04-23T08:20:02;100726.06;;;17.68;59.26
13974;BME280;7060;43.770;4.008;2023-04-23T08:22:32;100736.88;;;17.68;59.04
13974;BME280;7060;43.770;4.008;2023-04-23T08:25:01;100741.72;;;17.72;59.12
13974;BME280;7060;43.770;4.008;2023-04-23T08:27:30;100755.59;;;17.84;56.22
13974;BME280;7060;43.770;4.008;2023-04-23T08:29:59;100745.06;;;17.96;55.71
13974;BME280;7060;43.770;4.008;2023-04-23T08:32:28;100736.00;;;18.03;55.33
13974;BME280;7060;43.770;4.008;2023-04-23T08:34:58;100741.50;;;18.16;55.80
13974;BME280;7060;43.770;4.008;2023-04-23T08:37:26;100740.59;;;18.31;55.83
13974;BME280;7060;43.770;4.008;2023-04-23T08:39:57;100742.09;;;18.33;55.72
13974;BME280;7060;43.770;4.008;2023-04-23T08:42:32;100739.84;;;18.43;56.21
13974;BME280;7060;43.770;4.008;2023-04-23T08:45:04;100734.13;;;18.53;56.15
13974;BME280;7060;43.770;4.008;2023-04-23T08:47:34;100722.97;;;18.63;55.32
13974;BME280;7060;43.770;4.008;2023-04-23T08:50:06;100720.59;;;18.53;54.83
13974;BME280;7060;43.770;4.008;2023-04-23T08:52:37;100720.91;;;18.43;54.52
13974;BME280;7060;43.770;4.008;2023-04-23T08:55:08;100718.69;;;18.25;54.50
13974;BME280;7060;43.770;4.008;2023-04-23T08:57:38;100719.63;;;18.11;55.44
13974;BME280;7060;43.770;4.008;2023-04-23T09:00:08;100722.81;;;18.21;55.34
13974;BME280;7060;43.770;4.008;2023-04-23T09:02:39;100714.66;;;18.15;55.38
13974;BME280;7060;43.770;4.008;2023-04-23T09:05:10;100713.19;;;18.12;55.15
13974;BME280;7060;43.770;4.008;2023-04-23T09:07:39;100710.50;;;18.12;54.83
13974;BME280;7060;43.770;4.008;2023-04-23T09:10:09;100718.00;;;18.17;55.23
13974;BME280;7060;43.770;4.008;2023-04-23T09:12:42;100720.13;;;18.21;55.43
13974;BME280;7060;43.770;4.008;2023-04-23T09:15:12;100571.25;;;17.38;55.17
13974;BME280;7060;43.770;4.008;2023-04-23T09:17:43;100713.16;;;18.34;56.63
13974;BME280;7060;43.770;4.008;2023-04-23T09:20:14;100714.53;;;18.51;56.43
13974;BME280;7060;43.770;4.008;2023-04-23T09:22:44;100707.94;;;18.60;55.92
13974;BME280;7060;43.770;4.008;2023-04-23T09:25:15;100702.13;;;18.63;55.52
13974;BME280;7060;43.770;4.008;2023-04-23T09:27:44;100709.47;;;18.69;55.19
13974;BME280;7060;43.770;4.008;2023-04-23T09:30:14;100712.56;;;18.66;54.02
13974;BME280;7060;43.770;4.008;2023-04-23T09:32:44;100711.00;;;18.50;54.83
13974;BME280;7060;43.770;4.008;2023-04-23T09:35:16;100711.16;;;18.49;55.56
13974;BME280;7060;43.770;4.008;2023-04-23T09:37:47;100708.94;;;18.52;55.53
13974;BME280;7060;43.770;4.008;2023-04-23T09:40:17;100712.53;;;18.59;55.44
13974;BME280;7060;43.770;4.008;2023-04-23T09:42:47;100704.84;;;18.63;55.23
13974;BME280;7060;43.770;4.008;2023-04-23T09:45:15;100694.25;;;18.68;54.95
13974;BME280;7060;43.770;4.008;2023-04-23T09:47:48;100705.34;;;18.80;55.14
13974;BME280;7060;43.770;4.008;2023-04-23T09:50:19;100703.06;;;18.83;55.29
13974;BME280;7060;43.770;4.008;2023-04-23T09:52:53;100705.00;;;18.89;55.00
13974;BME280;7060;43.770;4.008;2023-04-23T09:55:30;100709.38;;;18.90;55.10
13974;BME280;7060;43.770;4.008;2023-04-23T09:58:02;100709.59;;;18.96;55.71
13974;BME280;7060;43.770;4.008;2023-04-23T10:00:32;100702.31;;;18.96;55.06
13974;BME280;7060;43.770;4.008;2023-04-23T10:03:01;100691.44;;;18.89;54.86
13974;BME280;7060;43.770;4.008;2023-04-23T10:05:37;100686.06;;;19.03;54.77
13974;BME280;7060;43.770;4.008;2023-04-23T10:08:26;100690.94;;;19.20;54.52
13974;BME280;7060;43.770;4.008;2023-04-23T10:10:55;100687.44;;;19.33;54.18
13974;BME280;7060;43.770;4.008;2023-04-23T10:13:43;100692.72;;;19.48;54.05
13974;BME280;7060;43.770;4.008;2023-04-23T10:16:12;100686.06;;;19.50;53.37
13974;BME280;7060;43.770;4.008;2023-04-23T10:18:51;100691.25;;;19.52;53.36
13974;BME280;7060;43.770;4.008;2023-04-23T10:21:24;100689.41;;;19.59;53.20
13974;BME280;7060;43.770;4.008;2023-04-23T10:24:09;100695.91;;;19.78;52.73
13974;BME280;7060;43.770;4.008;2023-04-23T10:26:41;100689.41;;;19.59;51.63
13974;BME280;7060;43.770;4.008;2023-04-23T10:29:13;100691.28;;;19.65;52.01
13974;BME280;7060;43.770;4.008;2023-04-23T10:31:42;100687.94;;;19.63;52.17
13974;BME280;7060;43.770;4.008;2023-04-23T10:34:14;100694.25;;;19.77;52.61
13974;BME280;7060;43.770;4.008;2023-04-23T10:36:44;100684.22;;;19.90;52.89
13974;BME280;7060;43.770;4.008;2023-04-23T10:39:13;100690.88;;;19.81;52.54
13974;BME280;7060;43.770;4.008;2023-04-23T10:41:55;100690.06;;;19.87;52.95
13974;BME280;7060;43.770;4.008;2023-04-23T10:44:31;100691.78;;;20.21;51.79
13974;BME280;7060;43.770;4.008;2023-04-23T10:47:19;100690.50;;;20.44;50.82
13974;BME280;7060;43.770;4.008;2023-04-23T10:49:48;100688.97;;;20.61;50.00
13974;BME280;7060;43.770;4.008;2023-04-23T10:52:19;100663.94;;;20.52;49.58
13974;BME280;7060;43.770;4.008;2023-04-23T10:54:56;100687.91;;;20.75;49.81
13974;BME280;7060;43.770;4.008;2023-04-23T10:57:26;100687.06;;;20.75;49.66
13974;BME280;7060;43.770;4.008;2023-04-23T10:59:54;100684.56;;;20.80;50.21
13974;BME280;7060;43.770;4.008;2023-04-23T11:02:25;100677.44;;;20.85;50.27
13974;BME280;7060;43.770;4.008;2023-04-23T11:04:55;100676.19;;;20.81;49.82
13974;BME280;7060;43.770;4.008;2023-04-23T11:07:30;100677.81;;;20.89;50.06
13974;BME280;7060;43.770;4.008;2023-04-23T11:09:59;100672.84;;;20.86;49.67
13974;BME280;7060;43.770;4.008;2023-04-23T11:12:31;100646.72;;;20.78;49.37
13974;BME280;7060;43.770;4.008;2023-04-23T11:15:09;100668.81;;;20.95;49.23
13974;BME280;7060;43.770;4.008;2023-04-23T11:17:59;100665.25;;;20.94;49.05
13974;BME280;7060;43.770;4.008;2023-04-23T11:20:29;100661.50;;;20.95;49.49
13974;BME280;7060;43.770;4.008;2023-04-23T11:22:58;100663.59;;;21.07;49.44
13974;BME280;7060;43.770;4.008;2023-04-23T11:25:27;100665.59;;;21.18;48.96
13974;BME280;7060;43.770;4.008;2023-04-23T11:27:57;100665.13;;;21.34;48.65
13974;BME280;7060;43.770;4.008;2023-04-23T11:30:26;100656.53;;;21.37;48.77
13974;BME280;7060;43.770;4.008;2023-04-23T11:32:56;100660.63;;;21.46;48.19
13974;BME280;7060;43.770;4.008;2023-04-23T11:35:26;100659.25;;;21.37;47.83
13974;BME280;7060;43.770;4.008;2023-04-23T11:37:58;100656.31;;;21.39;47.52
13974;BME280;7060;43.770;4.008;2023-04-23T11:40:26;100651.84;;;21.44;47.35
13974;BME280;7060;43.770;4.008;2023-04-23T11:42:56;100651.97;;;21.62;47.55
13974;BME280;7060;43.770;4.008;2023-04-23T11:45:26;100644.72;;;21.75;47.31
13974;BME280;7060;43.770;4.008;2023-04-23T11:47:57;100643.22;;;21.85;46.29
13974;BME280;7060;43.770;4.008;2023-04-23T11:50:28;100610.19;;;21.82;45.01
13974;BME280;7060;43.770;4.008;2023-04-23T11:53:04;100595.69;;;21.88;44.47
13974;BME280;7060;43.770;4.008;2023-04-23T11:55:33;100622.72;;;22.08;44.56
13974;BME280;7060;43.770;4.008;2023-04-23T11:58:02;100608.75;;;22.22;45.03
13974;BME280;7060;43.770;4.008;2023-04-23T12:00:30;100612.66;;;22.26;45.58
13974;BME280;7060;43.770;4.008;2023-04-23T12:03:00;100606.66;;;22.24;44.35
13974;BME280;7060;43.770;4.008;2023-04-23T12:05:30;100612.66;;;22.26;44.78
13974;BME280;7060;43.770;4.008;2023-04-23T12:08:09;100607.22;;;22.26;44.63
13974;BME280;7060;43.770;4.008;2023-04-23T12:10:41;100611.00;;;22.25;42.92
13974;BME280;7060;43.770;4.008;2023-04-23T12:13:15;100602.84;;;22.25;43.49
13974;BME280;7060;43.770;4.008;2023-04-23T12:15:45;100608.22;;;22.32;44.49
13974;BME280;7060;43.770;4.008;2023-04-23T12:18:14;100596.19;;;22.40;44.51
13974;BME280;7060;43.770;4.008;2023-04-23T12:20:43;100590.91;;;22.45;44.08
13974;BME280;7060;43.770;4.008;2023-04-23T12:23:13;100580.47;;;22.42;42.73
13974;BME280;7060;43.770;4.008;2023-04-23T12:25:41;100580.09;;;22.38;44.44
13974;BME280;7060;43.770;4.008;2023-04-23T12:28:10;100585.00;;;22.48;43.90
13974;BME280;7060;43.770;4.008;2023-04-23T12:30:42;100585.25;;;22.65;43.12
13974;BME280;7060;43.770;4.008;2023-04-23T12:33:11;100581.53;;;22.77;43.12
13974;BME280;7060;43.770;4.008;2023-04-23T12:35:41;100587.09;;;22.82;42.28
13974;BME280;7060;43.770;4.008;2023-04-23T12:38:21;100577.16;;;22.76;42.96
13974;BME280;7060;43.770;4.008;2023-04-23T12:40:51;100577.50;;;22.80;42.44
13974;BME280;7060;43.770;4.008;2023-04-23T12:43:20;100582.25;;;22.84;43.45
13974;BME280;7060;43.770;4.008;2023-04-23T12:45:48;100578.63;;;22.90;42.79
13974;BME280;7060;43.770;4.008;2023-04-23T12:48:18;100578.56;;;23.09;42.38
13974;BME280;7060;43.770;4.008;2023-04-23T12:50:47;100568.63;;;23.14;42.60
13974;BME280;7060;43.770;4.008;2023-04-23T12:53:17;100573.72;;;23.11;42.60
13974;BME280;7060;43.770;4.008;2023-04-23T12:55:47;100574.44;;;23.06;42.35
13974;BME280;7060;43.770;4.008;2023-04-23T12:58:16;100577.50;;;23.10;43.03
13974;BME280;7060;43.770;4.008;2023-04-23T13:00:45;100570.38;;;23.09;43.96
13974;BME280;7060;43.770;4.008;2023-04-23T13:03:14;100569.09;;;23.11;44.68
13974;BME280;7060;43.770;4.008;2023-04-23T13:05:43;100558.41;;;23.10;44.75
13974;BME280;7060;43.770;4.008;2023-04-23T13:08:11;100567.53;;;23.04;44.88
13974;BME280;7060;43.770;4.008;2023-04-23T13:10:40;100562.56;;;23.01;44.64
13974;BME280;7060;43.770;4.008;2023-04-23T13:13:10;100550.72;;;23.07;44.41
13974;BME280;7060;43.770;4.008;2023-04-23T13:15:38;100545.97;;;23.14;44.03